createdAt,value
2019-05-10T00:00:55.589Z,75.49
2019-05-10T00:03:42.922Z,75.17
2019-05-10T00:06:32.890Z,75.30
2019-05-10T00:09:01.184Z,75.77
2019-05-10T00:12:01.824Z,76.21
2019-05-10T00:14:59.106Z,76.68
2019-05-10T00:17:28.061Z,75.95
2019-05-10T00:19:58.118Z,76.42
2019-05-10T00:22:26.779Z,76.21
2019-05-10T00:25:03.766Z,76.67
2019-05-10T00:27:26.181Z,76.78
2019-05-10T00:29:55.264Z,76.87
2019-05-10T00:32:24.267Z,77.00
2019-05-10T00:34:52.972Z,76.90
2019-05-10T00:37:22.327Z,77.32
2019-05-10T00:39:51.106Z,77.08
2019-05-10T00:42:20.438Z,77.38
2019-05-10T00:44:49.563Z,77.40
2019-05-10T00:47:18.232Z,77.52
2019-05-10T00:49:47.302Z,77.29
2019-05-10T00:52:15.987Z,77.77
2019-05-10T00:54:44.681Z,78.03
2019-05-10T00:57:13.289Z,78.07
2019-05-10T00:59:41.912Z,78.18
2019-05-10T01:02:10.642Z,78.46
2019-05-10T01:04:39.672Z,78.46
2019-05-10T01:07:08.408Z,78.89
2019-05-10T01:09:37.408Z,79.13
2019-05-10T01:12:06.035Z,79.48
2019-05-10T01:14:34.652Z,79.81
2019-05-10T01:17:03.676Z,79.69
2019-05-10T01:19:32.629Z,79.74
2019-05-10T01:22:01.297Z,80.32
2019-05-10T01:24:30.654Z,80.67
2019-05-10T01:26:59.261Z,81.08
2019-05-10T01:29:27.962Z,81.37
2019-05-10T01:31:57.144Z,80.91
2019-05-10T01:34:26.223Z,81.56
2019-05-10T01:36:55.301Z,81.96
2019-05-10T01:39:24.126Z,82.43
2019-05-10T01:41:52.977Z,82.76
2019-05-10T01:44:21.632Z,82.84
2019-05-10T01:46:50.689Z,82.71
2019-05-10T01:49:19.667Z,82.75
2019-05-10T01:51:48.422Z,82.95
2019-05-10T01:54:17.549Z,83.49
2019-05-10T01:56:46.614Z,83.78
2019-05-10T01:59:16.062Z,84.31
2019-05-10T02:01:46.050Z,84.00
2019-05-10T02:04:17.678Z,84.40
2019-05-10T02:06:46.940Z,84.62
2019-05-10T02:09:16.483Z,84.66
2019-05-10T02:11:45.268Z,84.20
2019-05-10T02:14:13.923Z,85.22
2019-05-10T02:16:42.778Z,85.20
2019-05-10T02:19:11.486Z,85.52
2019-05-10T02:21:40.462Z,85.87
2019-05-10T02:24:09.707Z,85.52
2019-05-10T02:26:39.063Z,86.02
2019-05-10T02:29:07.724Z,86.32
2019-05-10T02:31:36.348Z,86.83
2019-05-10T02:34:05.089Z,86.82
2019-05-10T02:36:33.773Z,86.99
2019-05-10T02:39:04.745Z,86.79
2019-05-10T02:41:33.907Z,86.87
2019-05-10T02:44:02.634Z,87.42
2019-05-10T02:46:31.655Z,86.32
2019-05-10T02:49:00.620Z,87.79
2019-05-10T02:51:29.342Z,88.16
2019-05-10T02:53:59.097Z,87.97
2019-05-10T02:56:31.614Z,88.38
2019-05-10T02:59:01.257Z,88.67
2019-05-10T03:01:30.207Z,88.70
2019-05-10T03:04:01.773Z,89.31
2019-05-10T03:06:34.263Z,89.42
2019-05-10T03:09:07.493Z,89.67
2019-05-10T03:11:49.236Z,89.73
2019-05-10T03:14:19.209Z,90.35
2019-05-10T03:16:51.200Z,89.61
2019-05-10T03:19:21.584Z,91.27
2019-05-10T03:22:04.904Z,92.39
2019-05-10T03:24:34.181Z,92.96
2019-05-10T03:27:03.946Z,92.46
2019-05-10T03:29:32.577Z,92.74
2019-05-10T03:32:01.333Z,94.37
2019-05-10T03:34:31.024Z,96.92
2019-05-10T03:37:00.815Z,100.00
2019-05-10T03:39:34.014Z,100.00
2019-05-10T03:42:02.777Z,100.00
2019-05-10T03:44:32.039Z,100.00
2019-05-10T03:47:00.652Z,100.00
2019-05-10T03:49:30.006Z,99.55
2019-05-10T03:51:59.830Z,99.93
2019-05-10T03:54:28.526Z,99.25
2019-05-10T03:57:12.084Z,99.36
2019-05-10T03:59:27.507Z,99.99
2019-05-10T04:01:56.210Z,98.88
2019-05-10T04:04:25.364Z,99.10
2019-05-10T04:06:54.383Z,98.79
2019-05-10T04:09:23.624Z,99.02
2019-05-10T04:11:52.869Z,98.48
2019-05-10T04:14:21.533Z,98.55
2019-05-10T04:16:50.133Z,98.73
2019-05-10T04:19:19.867Z,98.19
2019-05-10T04:21:49.058Z,99.83
2019-05-10T04:24:17.681Z,99.68
2019-05-10T04:26:46.646Z,98.64
2019-05-10T04:29:15.378Z,99.63
2019-05-10T04:31:44.339Z,99.61
2019-05-10T04:34:12.995Z,100.00
2019-05-10T04:36:41.992Z,99.45
2019-05-10T04:39:10.991Z,99.36
2019-05-10T04:41:40.329Z,99.86
2019-05-10T04:44:10.361Z,98.74
2019-05-10T04:46:39.323Z,98.95
2019-05-10T04:49:09.080Z,98.72
2019-05-10T04:51:38.167Z,98.71
2019-05-10T04:54:07.621Z,98.46
2019-05-10T04:56:36.098Z,98.80
2019-05-10T04:59:04.603Z,99.15
2019-05-10T05:01:33.122Z,99.29
2019-05-10T05:04:02.361Z,99.36
2019-05-10T05:06:31.681Z,99.99
2019-05-10T05:09:01.409Z,100.00
2019-05-10T05:11:30.462Z,98.82
2019-05-10T05:13:59.745Z,99.55
2019-05-10T05:16:29.282Z,98.78
2019-05-10T05:18:57.907Z,100.00
2019-05-10T05:21:27.211Z,100.00
2019-05-10T05:23:56.768Z,99.99
2019-05-10T05:26:26.176Z,100.00
2019-05-10T05:28:55.784Z,100.00
2019-05-10T05:31:30.601Z,100.00
2019-05-10T05:33:59.081Z,100.00
2019-05-10T05:36:30.899Z,100.00
2019-05-10T05:39:00.714Z,100.00
2019-05-10T05:41:31.865Z,100.00
2019-05-10T05:44:01.637Z,100.00
2019-05-10T05:46:30.823Z,100.00
2019-05-10T05:48:59.804Z,100.00
2019-05-10T05:51:29.401Z,100.00
2019-05-10T05:53:58.408Z,100.00
2019-05-10T05:56:27.350Z,100.00
2019-05-10T05:58:56.496Z,100.00
2019-05-10T06:01:29.269Z,100.00
2019-05-10T06:04:00.164Z,100.00
2019-05-10T06:06:42.584Z,100.00
2019-05-10T06:09:09.802Z,100.00
2019-05-10T06:11:39.245Z,100.00
2019-05-10T06:14:10.488Z,100.00
2019-05-10T06:16:38.468Z,100.00
2019-05-10T06:19:07.803Z,100.00
2019-05-10T06:21:37.118Z,100.00
2019-05-10T06:24:07.367Z,100.00
2019-05-10T06:26:36.798Z,100.00
2019-05-10T06:29:16.114Z,100.00
2019-05-10T06:31:37.888Z,100.00
2019-05-10T06:34:07.744Z,100.00
2019-05-10T06:36:38.060Z,100.00
2019-05-10T06:39:08.211Z,100.00
2019-05-10T06:41:38.448Z,100.00
2019-05-10T06:44:07.262Z,100.00
2019-05-10T06:46:36.872Z,100.00
2019-05-10T06:49:08.452Z,100.00
2019-05-10T06:51:37.158Z,100.00
2019-05-10T06:54:06.391Z,100.00
2019-05-10T06:56:35.702Z,100.00
2019-05-10T06:59:13.408Z,100.00
2019-05-10T07:01:38.315Z,100.00
2019-05-10T07:04:06.469Z,100.00
2019-05-10T07:06:35.776Z,98.19
2019-05-10T07:09:06.590Z,98.46
2019-05-10T07:11:35.244Z,91.38
2019-05-10T07:14:04.038Z,92.41
2019-05-10T07:16:33.709Z,88.00
2019-05-10T07:19:02.507Z,82.42
2019-05-10T07:21:30.945Z,78.05
2019-05-10T07:23:59.372Z,80.01
2019-05-10T07:26:28.758Z,79.90
2019-05-10T07:28:58.024Z,81.27
2019-05-10T07:31:28.156Z,79.57
2019-05-10T07:33:56.819Z,79.65
2019-05-10T07:36:27.235Z,81.57
2019-05-10T07:38:56.205Z,80.10
2019-05-10T07:41:26.721Z,82.16
2019-05-10T07:44:00.589Z,81.53
2019-05-10T07:46:26.075Z,81.62
2019-05-10T07:48:55.041Z,80.45
2019-05-10T07:51:28.723Z,77.16
2019-05-10T07:53:56.975Z,80.69
2019-05-10T07:56:26.078Z,81.11
2019-05-10T07:58:55.619Z,79.42
2019-05-10T08:01:32.488Z,76.99
2019-05-10T08:03:55.747Z,75.92
2019-05-10T08:06:25.268Z,75.56
2019-05-10T08:08:55.560Z,75.11
2019-05-10T08:11:24.466Z,75.72
2019-05-10T08:13:57.852Z,74.94
2019-05-10T08:16:23.886Z,75.05
2019-05-10T08:18:55.568Z,73.36
2019-05-10T08:21:26.331Z,71.93
2019-05-10T08:23:59.049Z,73.80
2019-05-10T08:26:26.071Z,72.44
2019-05-10T08:28:55.142Z,73.18
2019-05-10T08:31:26.352Z,73.86
2019-05-10T08:33:59.465Z,73.77
2019-05-10T08:36:43.446Z,73.89
2019-05-10T08:39:19.098Z,74.09
2019-05-10T08:42:03.670Z,72.01
2019-05-10T08:44:23.957Z,72.38
2019-05-10T08:47:25.088Z,71.50
2019-05-10T08:50:48.847Z,70.73
2019-05-10T08:53:23.956Z,69.87
2019-05-10T08:56:07.565Z,69.20
2019-05-10T08:58:55.725Z,70.33
2019-05-10T09:01:46.549Z,69.72
2019-05-10T09:04:47.191Z,69.43
2019-05-10T09:07:23.323Z,69.88
2019-05-10T09:10:09.814Z,70.23
2019-05-10T09:12:58.279Z,70.38
2019-05-10T09:15:56.891Z,71.13
2019-05-10T09:18:54.923Z,71.11
2019-05-10T09:21:55.668Z,71.77
2019-05-10T09:24:53.078Z,69.90
2019-05-10T09:31:22.697Z,70.34
2019-05-10T09:34:12.115Z,70.70
2019-05-10T09:40:32.703Z,68.42
2019-05-10T09:43:07.512Z,67.19
2019-05-10T09:45:32.606Z,66.23
2019-05-10T09:48:02.601Z,64.40
2019-05-10T09:50:41.266Z,65.74
2019-05-10T09:53:03.699Z,65.14
2019-05-10T09:55:33.169Z,65.48
2019-05-10T09:58:02.727Z,66.47
2019-05-10T10:00:33.682Z,67.28
2019-05-10T10:03:03.394Z,68.02
2019-05-10T10:05:32.701Z,70.87
2019-05-10T10:08:03.634Z,72.43
2019-05-10T10:10:32.639Z,71.59
2019-05-10T10:13:08.456Z,70.53
2019-05-10T10:15:37.246Z,67.88
2019-05-10T10:18:06.827Z,66.59
2019-05-10T10:20:42.974Z,66.65
2019-05-10T10:23:07.282Z,68.33
2019-05-10T10:25:40.448Z,69.09
2019-05-10T10:28:16.730Z,69.09
2019-05-10T10:30:38.774Z,69.31
2019-05-10T10:33:11.474Z,69.84
2019-05-10T10:35:38.191Z,69.46
2019-05-10T10:38:08.286Z,69.46
2019-05-10T10:40:44.146Z,68.29
2019-05-10T10:43:07.690Z,68.44
2019-05-10T10:45:37.694Z,68.23
2019-05-10T10:48:12.644Z,68.26
2019-05-10T10:50:49.875Z,69.89
2019-05-10T10:53:14.761Z,71.43
2019-05-10T10:55:48.515Z,71.43
2019-05-10T10:58:14.815Z,69.73
2019-05-10T11:00:43.531Z,69.67
2019-05-10T11:03:12.679Z,69.99
2019-05-10T11:05:41.676Z,68.47
2019-05-10T11:08:11.211Z,67.53
2019-05-10T11:10:40.502Z,67.90
2019-05-10T11:13:18.068Z,68.24
2019-05-10T11:15:42.119Z,68.26
2019-05-10T11:18:10.995Z,66.17
2019-05-10T11:20:42.025Z,66.31
2019-05-10T11:23:11.693Z,65.10
2019-05-10T11:25:44.313Z,63.83
2019-05-10T11:28:14.057Z,63.70
2019-05-10T11:30:42.730Z,62.98
2019-05-10T11:33:26.090Z,62.98
2019-05-10T11:35:42.668Z,63.72
2019-05-10T11:38:12.904Z,63.47
2019-05-10T11:40:42.199Z,63.09
2019-05-10T11:43:11.314Z,62.58
2019-05-10T11:45:43.691Z,63.75
2019-05-10T11:48:12.887Z,63.75
2019-05-10T11:50:41.465Z,63.59
2019-05-10T11:53:13.590Z,63.54
2019-05-10T11:55:43.511Z,63.53
2019-05-10T11:58:13.251Z,64.06
2019-05-10T12:00:42.221Z,63.10
2019-05-10T12:03:18.370Z,63.59
2019-05-10T12:05:44.572Z,64.58
2019-05-10T12:08:13.744Z,64.72
2019-05-10T12:10:52.764Z,64.72
2019-05-10T12:13:19.389Z,63.54
2019-05-10T12:15:44.488Z,63.81
2019-05-10T12:18:14.836Z,64.04
2019-05-10T12:23:22.907Z,62.72
2019-05-10T12:25:58.805Z,62.90
2019-05-10T12:26:27.036Z,63.37
2019-05-10T12:28:24.592Z,61.67
2019-05-10T12:30:46.507Z,62.23
2019-05-10T12:33:23.914Z,61.44
2019-05-10T12:35:47.296Z,62.24
2019-05-10T12:38:16.413Z,62.78
2019-05-10T12:40:45.962Z,63.14
2019-05-10T12:43:15.053Z,61.63
2019-05-10T12:45:44.068Z,62.94
2019-05-10T12:48:12.706Z,62.59
2019-05-10T12:50:43.957Z,62.37
2019-05-10T12:53:15.766Z,61.09
2019-05-10T12:55:42.268Z,62.42
2019-05-10T12:58:11.312Z,62.27
2019-05-10T13:00:40.324Z,62.46
2019-05-10T13:03:12.626Z,61.32
2019-05-10T13:05:51.961Z,62.57
2019-05-10T13:08:11.635Z,62.57
2019-05-10T13:10:43.270Z,61.69
2019-05-10T13:13:11.806Z,63.09
2019-05-10T13:15:40.471Z,61.73
2019-05-10T13:18:10.739Z,59.86
2019-05-10T13:20:39.754Z,59.86
2019-05-10T13:23:09.899Z,58.90
2019-05-10T13:25:38.869Z,58.90
2019-05-10T13:28:11.231Z,58.69
2019-05-10T13:30:38.753Z,58.69
2019-05-10T13:33:07.669Z,57.42
2019-05-10T13:35:36.322Z,57.05
2019-05-10T13:38:06.455Z,54.82
2019-05-10T13:40:39.129Z,54.82
2019-05-10T13:43:06.836Z,54.35
2019-05-10T13:45:37.551Z,52.70
2019-05-10T13:48:06.366Z,52.07
2019-05-10T13:50:35.433Z,51.51
2019-05-10T13:53:04.105Z,52.39
2019-05-10T13:55:32.749Z,51.24
2019-05-10T13:58:01.363Z,51.43
2019-05-10T14:00:47.994Z,51.00
2019-05-10T14:03:16.810Z,50.86
2019-05-10T14:05:45.463Z,51.23
2019-05-10T14:08:14.304Z,51.04
2019-05-10T14:10:43.254Z,51.86
2019-05-10T14:13:16.441Z,51.29
2019-05-10T14:15:42.971Z,52.14
2019-05-10T14:18:13.311Z,51.40
2019-05-10T14:20:41.919Z,51.36
2019-05-10T14:23:12.029Z,52.55
2019-05-10T14:25:40.692Z,52.66
2019-05-10T14:28:15.113Z,52.36
2019-05-10T14:30:39.859Z,51.71
2019-05-10T14:33:13.972Z,52.07
2019-05-10T14:35:39.533Z,51.72
2019-05-10T14:38:10.700Z,51.24
2019-05-10T14:40:41.077Z,51.81
2019-05-10T14:43:11.214Z,52.00
2019-05-10T14:45:51.353Z,52.16
2019-05-10T14:48:28.515Z,50.98
2019-05-10T14:51:15.137Z,50.83
2019-05-10T14:53:44.480Z,50.92
2019-05-10T14:56:23.220Z,51.88
2019-05-10T14:58:51.833Z,51.78
2019-05-10T15:01:21.330Z,50.14
2019-05-10T15:03:50.417Z,49.93
2019-05-10T15:06:19.919Z,49.59
2019-05-10T15:08:49.735Z,48.95
2019-05-10T15:11:26.539Z,47.78
2019-05-10T15:14:09.053Z,47.90
2019-05-10T15:16:36.229Z,47.65
2019-05-10T15:19:05.048Z,48.57
2019-05-10T15:21:34.841Z,48.45
2019-05-10T15:24:03.852Z,48.70
2019-05-10T15:26:37.627Z,49.41
2019-05-10T15:29:03.438Z,48.95
2019-05-10T15:31:33.273Z,48.99
2019-05-10T15:34:05.293Z,48.77
2019-05-10T15:36:35.036Z,48.72
2019-05-10T15:39:07.034Z,49.23
2019-05-10T15:41:36.306Z,48.25
2019-05-10T15:44:15.178Z,48.98
2019-05-10T15:47:28.675Z,49.63
2019-05-10T15:50:15.437Z,49.64
2019-05-10T15:54:14.993Z,49.86
2019-05-10T15:57:35.736Z,49.71
2019-05-10T16:00:56.368Z,50.47
2019-05-10T16:03:42.507Z,50.14
2019-05-10T16:06:37.841Z,48.58
2019-05-10T16:12:41.287Z,50.09
2019-05-10T16:15:19.958Z,50.13
2019-05-10T16:18:07.380Z,50.31
2019-05-10T16:20:43.857Z,49.75
2019-05-10T16:23:28.307Z,48.52
2019-05-10T16:26:07.940Z,49.90
2019-05-10T16:29:01.997Z,49.75
2019-05-10T16:31:45.238Z,49.17
2019-05-10T16:34:26.333Z,49.79
2019-05-10T16:37:27.231Z,49.62
2019-05-10T16:40:05.887Z,48.43
2019-05-10T16:42:44.243Z,49.30
2019-05-10T16:45:19.005Z,48.25
2019-05-10T16:47:52.846Z,48.25
2019-05-10T16:50:37.003Z,49.08
2019-05-10T16:53:11.367Z,49.67
2019-05-10T16:55:48.155Z,49.57
2019-05-10T16:58:59.168Z,48.15
2019-05-10T17:01:39.914Z,48.58
2019-05-10T17:04:23.003Z,48.26
2019-05-10T17:07:31.339Z,48.56
2019-05-10T17:10:12.715Z,48.93
2019-05-10T17:12:44.893Z,48.93
2019-05-10T17:15:22.494Z,49.63
2019-05-10T17:18:03.268Z,49.24
2019-05-10T17:20:45.636Z,50.53
2019-05-10T17:26:55.060Z,49.65
2019-05-10T17:29:24.301Z,50.06
2019-05-10T17:31:52.902Z,50.47
2019-05-10T17:34:29.170Z,51.20
2019-05-10T17:36:58.141Z,51.32
2019-05-10T17:39:26.226Z,50.87
2019-05-10T17:41:57.811Z,52.40
2019-05-10T17:44:27.273Z,51.68
2019-05-10T17:46:57.451Z,52.36
2019-05-10T17:49:26.704Z,52.87
2019-05-10T17:51:55.393Z,52.97
2019-05-10T17:54:24.861Z,53.36
2019-05-10T17:56:54.231Z,53.26
2019-05-10T17:59:22.911Z,53.09
2019-05-10T18:01:51.612Z,52.73
2019-05-10T18:04:20.733Z,52.45
2019-05-10T18:06:49.339Z,53.05
2019-05-10T18:09:17.977Z,53.30
2019-05-10T18:11:46.933Z,53.36
2019-05-10T18:14:18.000Z,54.03
2019-05-10T18:16:49.947Z,53.00
2019-05-10T18:19:19.217Z,53.71
2019-05-10T18:21:48.327Z,54.30
2019-05-10T18:24:16.970Z,54.27
2019-05-10T18:26:45.675Z,54.46
2019-05-10T18:29:14.784Z,54.61
2019-05-10T18:31:54.666Z,55.22
2019-05-10T18:34:26.398Z,55.73
2019-05-10T18:36:54.143Z,55.80
2019-05-10T18:39:24.502Z,56.23
2019-05-10T18:42:25.380Z,56.21
2019-05-10T18:45:12.545Z,56.91
2019-05-10T18:47:39.895Z,57.56
2019-05-10T18:50:08.890Z,58.26
2019-05-10T18:52:38.565Z,58.57
2019-05-10T18:55:07.393Z,59.39
2019-05-10T18:57:36.913Z,59.98
2019-05-10T19:00:06.854Z,59.72
2019-05-10T19:02:36.066Z,60.70
2019-05-10T19:05:05.330Z,62.03
2019-05-10T19:07:36.178Z,62.23
2019-05-10T19:10:05.925Z,63.58
2019-05-10T19:12:35.706Z,63.43
2019-05-10T19:15:09.177Z,63.87
2019-05-10T19:17:40.335Z,64.86
2019-05-10T19:20:09.705Z,64.99
2019-05-10T19:22:41.223Z,65.47
2019-05-10T19:25:11.777Z,66.09
2019-05-10T19:27:44.156Z,66.70
2019-05-10T19:30:10.553Z,68.71
2019-05-10T19:32:39.245Z,69.33
2019-05-10T19:35:08.076Z,69.43
2019-05-10T19:37:37.323Z,71.85
2019-05-10T19:40:07.250Z,72.04
2019-05-10T19:42:37.061Z,73.84
2019-05-10T19:45:06.965Z,73.18
2019-05-10T19:47:35.592Z,73.72
2019-05-10T19:50:05.269Z,71.97
2019-05-10T19:52:34.228Z,73.26
2019-05-10T19:55:03.472Z,72.30
2019-05-10T19:57:32.582Z,72.31
2019-05-10T20:00:01.437Z,72.97
2019-05-10T20:02:30.166Z,72.45
2019-05-10T20:04:59.121Z,72.79
2019-05-10T20:07:43.293Z,72.04
2019-05-10T20:09:58.558Z,72.98
2019-05-10T20:12:27.477Z,72.99
2019-05-10T20:14:56.440Z,73.07
2019-05-10T20:17:25.541Z,73.33
2019-05-10T20:19:54.438Z,74.27
2019-05-10T20:22:23.271Z,74.28
2019-05-10T20:24:53.782Z,74.35
2019-05-10T20:27:23.651Z,73.81
2019-05-10T20:29:52.916Z,74.18
2019-05-10T20:32:21.705Z,75.82
2019-05-10T20:34:50.744Z,75.25
2019-05-10T20:37:19.322Z,75.57
2019-05-10T20:39:48.313Z,77.01
2019-05-10T20:42:17.430Z,78.88
2019-05-10T20:44:46.052Z,79.67
2019-05-10T20:47:15.097Z,78.30
2019-05-10T20:49:44.069Z,77.62
2019-05-10T20:52:13.175Z,78.91
2019-05-10T20:54:42.213Z,79.06
2019-05-10T20:57:10.910Z,79.85
2019-05-10T20:59:40.129Z,82.46
2019-05-10T21:02:09.150Z,81.38
2019-05-10T21:04:38.108Z,79.27
2019-05-10T21:07:07.995Z,79.00
2019-05-10T21:09:36.768Z,79.45
2019-05-10T21:12:05.759Z,82.66
2019-05-10T21:14:34.648Z,84.82
2019-05-10T21:17:03.283Z,84.20
2019-05-10T21:19:31.798Z,82.89
2019-05-10T21:22:00.805Z,81.65
2019-05-10T21:24:29.764Z,80.32
2019-05-10T21:26:59.590Z,79.65
2019-05-10T21:29:28.580Z,80.34
2019-05-10T21:31:57.197Z,80.83
2019-05-10T21:34:25.919Z,82.63
2019-05-10T21:36:54.850Z,79.73
2019-05-10T21:39:23.842Z,80.67
2019-05-10T21:41:52.817Z,80.37
2019-05-10T21:44:21.581Z,80.91
2019-05-10T21:46:53.384Z,80.71
2019-05-10T21:49:20.586Z,80.98
2019-05-10T21:51:49.798Z,79.76
2019-05-10T21:54:18.987Z,82.12
2019-05-10T21:56:48.345Z,82.53
2019-05-10T21:59:17.314Z,84.94
2019-05-10T22:01:46.101Z,89.47
2019-05-10T22:04:15.312Z,96.72
2019-05-10T22:06:44.210Z,98.39
2019-05-10T22:09:13.369Z,92.05
2019-05-10T22:11:42.596Z,87.67
2019-05-10T22:14:12.226Z,86.04
2019-05-10T22:16:41.609Z,86.61
2019-05-10T22:19:10.372Z,89.49
2019-05-10T22:21:39.658Z,90.31
2019-05-10T22:24:09.072Z,91.29
2019-05-10T22:26:37.926Z,92.12
2019-05-10T22:29:07.078Z,91.67
2019-05-10T22:31:36.805Z,94.59
2019-05-10T22:34:05.792Z,94.70
2019-05-10T22:36:34.387Z,93.88
2019-05-10T22:39:07.500Z,92.81
2019-05-10T22:41:36.347Z,92.23
2019-05-10T22:44:05.096Z,93.34
2019-05-10T22:46:34.547Z,92.96
2019-05-10T22:49:03.630Z,91.10
2019-05-10T22:51:32.152Z,89.19
2019-05-10T22:54:00.816Z,89.15
2019-05-10T22:56:30.009Z,88.41
2019-05-10T22:58:58.889Z,88.82
2019-05-10T23:01:28.499Z,87.47
2019-05-10T23:03:57.604Z,86.52
2019-05-10T23:06:26.377Z,85.37
2019-05-10T23:08:55.334Z,86.78
2019-05-10T23:11:24.190Z,92.27
2019-05-10T23:13:53.467Z,94.97
2019-05-10T23:16:22.128Z,98.19
2019-05-10T23:18:51.528Z,97.66
2019-05-10T23:21:20.755Z,99.91
2019-05-10T23:23:49.447Z,100.00
2019-05-10T23:26:18.535Z,100.00
2019-05-10T23:28:47.077Z,100.00
2019-05-10T23:31:15.918Z,100.00
2019-05-10T23:33:44.897Z,100.00
2019-05-10T23:36:13.527Z,99.71
2019-05-10T23:38:43.929Z,92.33
2019-05-10T23:41:12.815Z,91.83
2019-05-10T23:43:41.877Z,89.65
2019-05-10T23:46:10.584Z,90.08
2019-05-10T23:48:39.190Z,90.40
2019-05-10T23:51:08.164Z,89.14
2019-05-10T23:53:36.766Z,91.47
2019-05-10T23:56:05.645Z,91.67
2019-05-10T23:58:35.099Z,87.13
